sensor_id;sensor_type;location;lat;lon;timestamp;P1;durP1;ratioP1;P2;durP2;ratioP2
23088;SDS011;11713;48.506;8.966;2023-02-28T00:00:21;2.70;;;2.00;;
23088;SDS011;11713;48.506;8.966;2023-02-28T00:02:47;2.40;;;2.00;;
23088;SDS011;11713;48.506;8.966;2023-02-28T00:05:15;3.40;;;2.10;;
23088;SDS011;11713;48.506;8.966;2023-02-28T00:07:43;2.60;;;1.90;;
23088;SDS011;11713;48.506;8.966;2023-02-28T00:10:11;3.77;;;2.00;;
23088;SDS011;11713;48.506;8.966;2023-02-28T00:12:38;2.37;;;2.13;;
23088;SDS011;11713;48.506;8.966;2023-02-28T00:15:05;3.30;;;2.10;;
23088;SDS011;11713;48.506;8.966;2023-02-28T00:17:31;3.57;;;2.20;;
23088;SDS011;11713;48.506;8.966;2023-02-28T00:19:57;2.50;;;2.03;;
23088;SDS011;11713;48.506;8.966;2023-02-28T00:22:35;2.93;;;2.30;;
23088;SDS011;11713;48.506;8.966;2023-02-28T00:25:02;4.23;;;2.37;;
23088;SDS011;11713;48.506;8.966;2023-02-28T00:27:29;2.40;;;1.90;;
23088;SDS011;11713;48.506;8.966;2023-02-28T00:29:55;3.20;;;2.10;;
23088;SDS011;11713;48.506;8.966;2023-02-28T00:32:21;2.83;;;1.90;;
23088;SDS011;11713;48.506;8.966;2023-02-28T00:34:47;4.23;;;2.37;;
23088;SDS011;11713;48.506;8.966;2023-02-28T00:37:13;4.83;;;2.33;;
23088;SDS011;11713;48.506;8.966;2023-02-28T00:39:39;3.43;;;2.27;;
23088;SDS011;11713;48.506;8.966;2023-02-28T00:42:06;3.40;;;2.33;;
23088;SDS011;11713;48.506;8.966;2023-02-28T00:44:33;4.40;;;2.50;;
23088;SDS011;11713;48.506;8.966;2023-02-28T00:46:59;3.87;;;2.57;;
23088;SDS011;11713;48.506;8.966;2023-02-28T00:49:26;3.40;;;2.30;;
23088;SDS011;11713;48.506;8.966;2023-02-28T00:51:53;3.73;;;2.40;;
23088;SDS011;11713;48.506;8.966;2023-02-28T00:54:20;5.07;;;2.70;;
23088;SDS011;11713;48.506;8.966;2023-02-28T00:56:46;3.17;;;2.40;;
23088;SDS011;11713;48.506;8.966;2023-02-28T00:59:12;3.60;;;2.60;;
23088;SDS011;11713;48.506;8.966;2023-02-28T01:01:39;4.63;;;2.33;;
23088;SDS011;11713;48.506;8.966;2023-02-28T01:04:05;3.83;;;2.50;;
23088;SDS011;11713;48.506;8.966;2023-02-28T01:06:31;2.87;;;2.23;;
23088;SDS011;11713;48.506;8.966;2023-02-28T01:08:57;4.23;;;2.67;;
23088;SDS011;11713;48.506;8.966;2023-02-28T01:11:23;4.30;;;2.60;;
23088;SDS011;11713;48.506;8.966;2023-02-28T01:13:49;3.77;;;2.50;;
23088;SDS011;11713;48.506;8.966;2023-02-28T01:16:15;3.30;;;2.20;;
23088;SDS011;11713;48.506;8.966;2023-02-28T01:18:41;3.33;;;2.10;;
23088;SDS011;11713;48.506;8.966;2023-02-28T01:21:08;3.03;;;2.33;;
23088;SDS011;11713;48.506;8.966;2023-02-28T01:23:39;2.83;;;2.30;;
23088;SDS011;11713;48.506;8.966;2023-02-28T01:26:06;3.83;;;1.90;;
23088;SDS011;11713;48.506;8.966;2023-02-28T01:28:39;3.47;;;2.37;;
23088;SDS011;11713;48.506;8.966;2023-02-28T01:31:05;5.63;;;2.30;;
23088;SDS011;11713;48.506;8.966;2023-02-28T01:33:32;2.67;;;2.20;;
23088;SDS011;11713;48.506;8.966;2023-02-28T01:36:02;4.33;;;2.30;;
23088;SDS011;11713;48.506;8.966;2023-02-28T01:38:35;3.17;;;2.50;;
23088;SDS011;11713;48.506;8.966;2023-02-28T01:41:02;2.70;;;2.30;;
23088;SDS011;11713;48.506;8.966;2023-02-28T01:43:29;3.43;;;2.60;;
23088;SDS011;11713;48.506;8.966;2023-02-28T01:46:07;4.23;;;2.50;;
23088;SDS011;11713;48.506;8.966;2023-02-28T01:48:34;2.70;;;2.10;;
23088;SDS011;11713;48.506;8.966;2023-02-28T01:51:07;3.70;;;2.30;;
23088;SDS011;11713;48.506;8.966;2023-02-28T01:53:44;3.07;;;2.03;;
23088;SDS011;11713;48.506;8.966;2023-02-28T01:56:14;4.20;;;2.50;;
23088;SDS011;11713;48.506;8.966;2023-02-28T01:58:48;4.17;;;2.40;;
23088;SDS011;11713;48.506;8.966;2023-02-28T02:01:18;4.43;;;2.33;;
23088;SDS011;11713;48.506;8.966;2023-02-28T02:03:59;5.17;;;2.33;;
23088;SDS011;11713;48.506;8.966;2023-02-28T02:06:28;3.17;;;2.50;;
23088;SDS011;11713;48.506;8.966;2023-02-28T02:09:01;4.00;;;2.50;;
23088;SDS011;11713;48.506;8.966;2023-02-28T02:11:28;3.27;;;2.30;;
23088;SDS011;11713;48.506;8.966;2023-02-28T02:22:37;3.87;;;2.37;;
23088;SDS011;11713;48.506;8.966;2023-02-28T02:36:09;5.53;;;2.60;;
23088;SDS011;11713;48.506;8.966;2023-02-28T02:38:47;5.20;;;2.90;;
23088;SDS011;11713;48.506;8.966;2023-02-28T02:46:49;5.10;;;2.63;;
23088;SDS011;11713;48.506;8.966;2023-02-28T02:49:21;5.30;;;2.57;;
23088;SDS011;11713;48.506;8.966;2023-02-28T02:51:50;3.77;;;2.80;;
23088;SDS011;11713;48.506;8.966;2023-02-28T02:54:22;3.87;;;2.93;;
23088;SDS011;11713;48.506;8.966;2023-02-28T02:56:55;4.13;;;2.50;;
23088;SDS011;11713;48.506;8.966;2023-02-28T02:59:24;4.03;;;2.40;;
23088;SDS011;11713;48.506;8.966;2023-02-28T03:01:53;5.07;;;2.60;;
23088;SDS011;11713;48.506;8.966;2023-02-28T03:04:25;4.50;;;2.50;;
23088;SDS011;11713;48.506;8.966;2023-02-28T03:06:57;3.90;;;2.47;;
23088;SDS011;11713;48.506;8.966;2023-02-28T03:09:24;4.10;;;2.53;;
23088;SDS011;11713;48.506;8.966;2023-02-28T03:11:51;3.47;;;2.30;;
23088;SDS011;11713;48.506;8.966;2023-02-28T03:30:27;6.60;;;3.27;;
23088;SDS011;11713;48.506;8.966;2023-02-28T03:33:16;7.23;;;2.97;;
23088;SDS011;11713;48.506;8.966;2023-02-28T03:35:48;3.97;;;2.80;;
23088;SDS011;11713;48.506;8.966;2023-02-28T03:40:47;4.53;;;3.07;;
23088;SDS011;11713;48.506;8.966;2023-02-28T03:43:22;4.67;;;2.90;;
23088;SDS011;11713;48.506;8.966;2023-02-28T03:45:53;5.37;;;3.17;;
23088;SDS011;11713;48.506;8.966;2023-02-28T03:48:29;4.67;;;3.30;;
23088;SDS011;11713;48.506;8.966;2023-02-28T03:51:00;5.70;;;3.27;;
23088;SDS011;11713;48.506;8.966;2023-02-28T03:53:32;3.83;;;2.70;;
23088;SDS011;11713;48.506;8.966;2023-02-28T03:56:02;4.17;;;3.03;;
23088;SDS011;11713;48.506;8.966;2023-02-28T04:01:23;6.17;;;3.00;;
23088;SDS011;11713;48.506;8.966;2023-02-28T04:03:51;3.77;;;3.17;;
23088;SDS011;11713;48.506;8.966;2023-02-28T04:06:20;5.33;;;3.40;;
23088;SDS011;11713;48.506;8.966;2023-02-28T04:08:47;4.67;;;3.67;;
23088;SDS011;11713;48.506;8.966;2023-02-28T04:13:40;3.57;;;2.70;;
23088;SDS011;11713;48.506;8.966;2023-02-28T04:16:08;4.83;;;3.37;;
23088;SDS011;11713;48.506;8.966;2023-02-28T04:18:41;7.43;;;3.40;;
23088;SDS011;11713;48.506;8.966;2023-02-28T04:21:08;4.37;;;3.27;;
23088;SDS011;11713;48.506;8.966;2023-02-28T04:23:35;5.13;;;3.50;;
23088;SDS011;11713;48.506;8.966;2023-02-28T04:26:00;4.77;;;3.10;;
23088;SDS011;11713;48.506;8.966;2023-02-28T04:28:26;4.27;;;3.10;;
23088;SDS011;11713;48.506;8.966;2023-02-28T04:30:56;5.53;;;3.33;;
23088;SDS011;11713;48.506;8.966;2023-02-28T04:33:26;4.60;;;3.20;;
23088;SDS011;11713;48.506;8.966;2023-02-28T04:35:59;4.83;;;3.37;;
23088;SDS011;11713;48.506;8.966;2023-02-28T04:38:35;5.33;;;3.07;;
23088;SDS011;11713;48.506;8.966;2023-02-28T04:41:02;5.93;;;3.60;;
23088;SDS011;11713;48.506;8.966;2023-02-28T04:43:29;4.87;;;3.27;;
23088;SDS011;11713;48.506;8.966;2023-02-28T04:45:56;5.63;;;3.63;;
23088;SDS011;11713;48.506;8.966;2023-02-28T04:48:24;4.47;;;3.70;;
23088;SDS011;11713;48.506;8.966;2023-02-28T04:51:02;4.67;;;3.57;;
23088;SDS011;11713;48.506;8.966;2023-02-28T04:53:38;5.00;;;3.60;;
23088;SDS011;11713;48.506;8.966;2023-02-28T04:56:06;5.17;;;3.77;;
23088;SDS011;11713;48.506;8.966;2023-02-28T04:58:33;5.07;;;3.37;;
23088;SDS011;11713;48.506;8.966;2023-02-28T05:01:03;5.70;;;3.83;;
23088;SDS011;11713;48.506;8.966;2023-02-28T05:03:40;6.80;;;3.83;;
23088;SDS011;11713;48.506;8.966;2023-02-28T05:06:07;6.07;;;4.00;;
23088;SDS011;11713;48.506;8.966;2023-02-28T05:08:33;5.20;;;3.90;;
23088;SDS011;11713;48.506;8.966;2023-02-28T05:11:00;4.93;;;3.93;;
23088;SDS011;11713;48.506;8.966;2023-02-28T05:13:26;6.47;;;3.80;;
23088;SDS011;11713;48.506;8.966;2023-02-28T05:15:52;5.77;;;4.00;;
23088;SDS011;11713;48.506;8.966;2023-02-28T05:18:19;5.23;;;3.60;;
23088;SDS011;11713;48.506;8.966;2023-02-28T05:20:45;7.03;;;4.33;;
23088;SDS011;11713;48.506;8.966;2023-02-28T05:23:11;6.97;;;4.20;;
23088;SDS011;11713;48.506;8.966;2023-02-28T05:25:38;6.37;;;4.23;;
23088;SDS011;11713;48.506;8.966;2023-02-28T05:28:05;7.73;;;4.30;;
23088;SDS011;11713;48.506;8.966;2023-02-28T05:30:31;5.70;;;4.20;;
23088;SDS011;11713;48.506;8.966;2023-02-28T05:32:57;5.47;;;3.90;;
23088;SDS011;11713;48.506;8.966;2023-02-28T05:35:23;5.40;;;3.90;;
23088;SDS011;11713;48.506;8.966;2023-02-28T05:37:50;4.83;;;4.07;;
23088;SDS011;11713;48.506;8.966;2023-02-28T05:40:16;5.07;;;3.90;;
23088;SDS011;11713;48.506;8.966;2023-02-28T05:42:42;5.97;;;4.43;;
23088;SDS011;11713;48.506;8.966;2023-02-28T05:45:08;5.70;;;4.20;;
23088;SDS011;11713;48.506;8.966;2023-02-28T05:47:35;5.50;;;3.93;;
23088;SDS011;11713;48.506;8.966;2023-02-28T05:50:02;6.47;;;4.23;;
23088;SDS011;11713;48.506;8.966;2023-02-28T05:52:28;6.43;;;4.50;;
23088;SDS011;11713;48.506;8.966;2023-02-28T05:54:55;6.33;;;4.40;;
23088;SDS011;11713;48.506;8.966;2023-02-28T05:57:22;6.93;;;4.47;;
23088;SDS011;11713;48.506;8.966;2023-02-28T05:59:48;6.37;;;4.87;;
23088;SDS011;11713;48.506;8.966;2023-02-28T06:02:14;8.10;;;4.80;;
23088;SDS011;11713;48.506;8.966;2023-02-28T06:04:41;7.97;;;4.30;;
23088;SDS011;11713;48.506;8.966;2023-02-28T06:07:08;7.87;;;4.67;;
23088;SDS011;11713;48.506;8.966;2023-02-28T06:09:34;6.97;;;5.20;;
23088;SDS011;11713;48.506;8.966;2023-02-28T06:12:01;6.17;;;4.40;;
23088;SDS011;11713;48.506;8.966;2023-02-28T06:14:30;6.93;;;4.83;;
23088;SDS011;11713;48.506;8.966;2023-02-28T06:16:58;7.13;;;4.87;;
23088;SDS011;11713;48.506;8.966;2023-02-28T06:19:24;6.17;;;4.60;;
23088;SDS011;11713;48.506;8.966;2023-02-28T06:21:51;6.07;;;4.93;;
23088;SDS011;11713;48.506;8.966;2023-02-28T06:24:21;7.53;;;4.57;;
23088;SDS011;11713;48.506;8.966;2023-02-28T06:26:48;5.97;;;4.77;;
23088;SDS011;11713;48.506;8.966;2023-02-28T06:29:14;7.27;;;5.10;;
23088;SDS011;11713;48.506;8.966;2023-02-28T06:31:42;7.57;;;5.00;;
23088;SDS011;11713;48.506;8.966;2023-02-28T06:34:12;8.13;;;5.00;;
23088;SDS011;11713;48.506;8.966;2023-02-28T06:36:38;6.50;;;4.67;;
23088;SDS011;11713;48.506;8.966;2023-02-28T06:39:05;7.00;;;5.23;;
23088;SDS011;11713;48.506;8.966;2023-02-28T06:41:32;6.87;;;4.83;;
23088;SDS011;11713;48.506;8.966;2023-02-28T06:44:03;7.33;;;4.70;;
23088;SDS011;11713;48.506;8.966;2023-02-28T06:46:42;9.70;;;5.00;;
23088;SDS011;11713;48.506;8.966;2023-02-28T06:49:09;7.70;;;5.20;;
23088;SDS011;11713;48.506;8.966;2023-02-28T06:51:36;8.70;;;5.10;;
23088;SDS011;11713;48.506;8.966;2023-02-28T06:54:04;8.67;;;5.73;;
23088;SDS011;11713;48.506;8.966;2023-02-28T06:56:30;6.20;;;5.20;;
23088;SDS011;11713;48.506;8.966;2023-02-28T06:58:56;8.53;;;5.20;;
23088;SDS011;11713;48.506;8.966;2023-02-28T07:01:22;8.23;;;5.40;;
23088;SDS011;11713;48.506;8.966;2023-02-28T07:03:49;8.57;;;5.07;;
23088;SDS011;11713;48.506;8.966;2023-02-28T07:06:20;8.63;;;5.07;;
23088;SDS011;11713;48.506;8.966;2023-02-28T07:08:47;8.60;;;5.07;;
23088;SDS011;11713;48.506;8.966;2023-02-28T07:11:14;7.00;;;5.00;;
23088;SDS011;11713;48.506;8.966;2023-02-28T07:13:40;9.53;;;5.70;;
23088;SDS011;11713;48.506;8.966;2023-02-28T07:16:07;7.17;;;5.37;;
23088;SDS011;11713;48.506;8.966;2023-02-28T07:18:36;7.23;;;5.40;;
23088;SDS011;11713;48.506;8.966;2023-02-28T07:21:03;10.50;;;6.17;;
23088;SDS011;11713;48.506;8.966;2023-02-28T07:23:30;8.53;;;5.83;;
23088;SDS011;11713;48.506;8.966;2023-02-28T07:25:56;7.30;;;6.07;;
23088;SDS011;11713;48.506;8.966;2023-02-28T07:28:22;9.00;;;5.73;;
23088;SDS011;11713;48.506;8.966;2023-02-28T07:30:48;8.50;;;5.50;;
23088;SDS011;11713;48.506;8.966;2023-02-28T07:33:14;9.37;;;6.23;;
23088;SDS011;11713;48.506;8.966;2023-02-28T07:35:40;8.83;;;5.53;;
23088;SDS011;11713;48.506;8.966;2023-02-28T07:38:06;8.03;;;5.60;;
23088;SDS011;11713;48.506;8.966;2023-02-28T07:40:33;7.83;;;5.87;;
23088;SDS011;11713;48.506;8.966;2023-02-28T07:43:00;7.47;;;5.80;;
23088;SDS011;11713;48.506;8.966;2023-02-28T07:45:26;8.00;;;6.10;;
23088;SDS011;11713;48.506;8.966;2023-02-28T07:47:54;8.37;;;6.33;;
23088;SDS011;11713;48.506;8.966;2023-02-28T07:50:20;8.60;;;5.90;;
23088;SDS011;11713;48.506;8.966;2023-02-28T07:52:46;7.90;;;5.80;;
23088;SDS011;11713;48.506;8.966;2023-02-28T07:55:12;9.57;;;6.30;;
23088;SDS011;11713;48.506;8.966;2023-02-28T07:57:39;8.63;;;6.13;;
23088;SDS011;11713;48.506;8.966;2023-02-28T08:00:07;8.73;;;6.20;;
23088;SDS011;11713;48.506;8.966;2023-02-28T08:02:39;8.60;;;5.70;;
23088;SDS011;11713;48.506;8.966;2023-02-28T08:05:05;10.23;;;5.87;;
23088;SDS011;11713;48.506;8.966;2023-02-28T08:07:31;8.87;;;5.97;;
23088;SDS011;11713;48.506;8.966;2023-02-28T08:09:58;8.43;;;6.13;;
23088;SDS011;11713;48.506;8.966;2023-02-28T08:12:25;12.07;;;6.97;;
23088;SDS011;11713;48.506;8.966;2023-02-28T08:14:51;10.40;;;6.87;;
23088;SDS011;11713;48.506;8.966;2023-02-28T08:17:17;8.27;;;5.80;;
23088;SDS011;11713;48.506;8.966;2023-02-28T08:19:46;9.70;;;6.70;;
23088;SDS011;11713;48.506;8.966;2023-02-28T08:22:12;8.73;;;6.07;;
23088;SDS011;11713;48.506;8.966;2023-02-28T08:24:38;8.43;;;6.10;;
23088;SDS011;11713;48.506;8.966;2023-02-28T08:27:07;10.97;;;6.67;;
23088;SDS011;11713;48.506;8.966;2023-02-28T08:29:34;9.93;;;6.33;;
23088;SDS011;11713;48.506;8.966;2023-02-28T08:32:03;10.17;;;6.70;;
23088;SDS011;11713;48.506;8.966;2023-02-28T08:34:30;9.37;;;6.47;;
23088;SDS011;11713;48.506;8.966;2023-02-28T08:36:56;9.40;;;6.23;;
23088;SDS011;11713;48.506;8.966;2023-02-28T08:39:22;8.67;;;6.80;;
23088;SDS011;11713;48.506;8.966;2023-02-28T08:41:48;10.23;;;6.77;;
23088;SDS011;11713;48.506;8.966;2023-02-28T08:44:14;10.77;;;6.63;;
23088;SDS011;11713;48.506;8.966;2023-02-28T08:46:39;9.07;;;7.07;;
23088;SDS011;11713;48.506;8.966;2023-02-28T08:49:05;10.43;;;6.80;;
23088;SDS011;11713;48.506;8.966;2023-02-28T08:51:32;10.20;;;7.17;;
23088;SDS011;11713;48.506;8.966;2023-02-28T08:53:58;10.80;;;6.87;;
23088;SDS011;11713;48.506;8.966;2023-02-28T08:56:25;10.83;;;6.90;;
23088;SDS011;11713;48.506;8.966;2023-02-28T08:58:53;9.50;;;7.17;;
23088;SDS011;11713;48.506;8.966;2023-02-28T09:01:21;8.93;;;7.33;;
23088;SDS011;11713;48.506;8.966;2023-02-28T09:03:50;11.70;;;7.30;;
23088;SDS011;11713;48.506;8.966;2023-02-28T09:06:18;9.87;;;7.00;;
23088;SDS011;11713;48.506;8.966;2023-02-28T09:08:45;9.97;;;7.47;;
23088;SDS011;11713;48.506;8.966;2023-02-28T09:11:12;9.87;;;7.03;;
23088;SDS011;11713;48.506;8.966;2023-02-28T09:13:39;9.77;;;8.00;;
23088;SDS011;11713;48.506;8.966;2023-02-28T09:16:06;12.97;;;7.70;;
23088;SDS011;11713;48.506;8.966;2023-02-28T09:18:34;11.07;;;7.23;;
23088;SDS011;11713;48.506;8.966;2023-02-28T09:21:04;11.50;;;8.00;;
23088;SDS011;11713;48.506;8.966;2023-02-28T09:23:31;11.03;;;8.20;;
23088;SDS011;11713;48.506;8.966;2023-02-28T09:25:57;13.23;;;8.70;;
23088;SDS011;11713;48.506;8.966;2023-02-28T09:28:23;11.73;;;8.63;;
23088;SDS011;11713;48.506;8.966;2023-02-28T09:30:52;11.67;;;7.77;;
23088;SDS011;11713;48.506;8.966;2023-02-28T09:33:21;12.37;;;7.90;;
23088;SDS011;11713;48.506;8.966;2023-02-28T09:35:48;11.20;;;8.57;;
23088;SDS011;11713;48.506;8.966;2023-02-28T09:38:15;10.57;;;7.70;;
23088;SDS011;11713;48.506;8.966;2023-02-28T09:40:52;11.27;;;7.63;;
23088;SDS011;11713;48.506;8.966;2023-02-28T09:43:22;10.83;;;8.30;;
23088;SDS011;11713;48.506;8.966;2023-02-28T09:45:52;10.13;;;7.57;;
23088;SDS011;11713;48.506;8.966;2023-02-28T09:48:33;10.17;;;7.80;;
23088;SDS011;11713;48.506;8.966;2023-02-28T09:51:09;10.37;;;7.77;;
23088;SDS011;11713;48.506;8.966;2023-02-28T09:53:51;9.23;;;7.77;;
23088;SDS011;11713;48.506;8.966;2023-02-28T09:56:20;10.10;;;7.77;;
23088;SDS011;11713;48.506;8.966;2023-02-28T09:58:52;10.13;;;7.60;;
23088;SDS011;11713;48.506;8.966;2023-02-28T10:01:28;10.27;;;7.97;;
23088;SDS011;11713;48.506;8.966;2023-02-28T10:07:05;14.23;;;8.37;;
23088;SDS011;11713;48.506;8.966;2023-02-28T10:09:47;10.83;;;7.70;;
23088;SDS011;11713;48.506;8.966;2023-02-28T10:12:18;10.90;;;7.33;;
23088;SDS011;11713;48.506;8.966;2023-02-28T10:14:47;10.30;;;8.13;;
23088;SDS011;11713;48.506;8.966;2023-02-28T10:17:17;10.30;;;8.33;;
23088;SDS011;11713;48.506;8.966;2023-02-28T10:22:16;12.07;;;8.43;;
23088;SDS011;11713;48.506;8.966;2023-02-28T10:24:51;12.27;;;8.10;;
23088;SDS011;11713;48.506;8.966;2023-02-28T10:27:22;11.67;;;8.33;;
23088;SDS011;11713;48.506;8.966;2023-02-28T10:29:53;11.70;;;8.27;;
23088;SDS011;11713;48.506;8.966;2023-02-28T10:32:24;12.30;;;8.33;;
23088;SDS011;11713;48.506;8.966;2023-02-28T10:34:57;10.57;;;8.03;;
23088;SDS011;11713;48.506;8.966;2023-02-28T10:37:40;11.70;;;7.93;;
23088;SDS011;11713;48.506;8.966;2023-02-28T10:40:25;13.40;;;9.10;;
23088;SDS011;11713;48.506;8.966;2023-02-28T10:43:01;13.10;;;8.93;;
23088;SDS011;11713;48.506;8.966;2023-02-28T10:45:36;10.57;;;8.10;;
23088;SDS011;11713;48.506;8.966;2023-02-28T10:53:31;12.47;;;8.40;;
23088;SDS011;11713;48.506;8.966;2023-02-28T10:58:24;9.70;;;7.67;;
23088;SDS011;11713;48.506;8.966;2023-02-28T11:00:52;10.63;;;7.90;;
23088;SDS011;11713;48.506;8.966;2023-02-28T11:03:28;10.90;;;7.97;;
23088;SDS011;11713;48.506;8.966;2023-02-28T11:08:33;9.67;;;7.53;;
23088;SDS011;11713;48.506;8.966;2023-02-28T11:11:03;10.57;;;8.07;;
23088;SDS011;11713;48.506;8.966;2023-02-28T11:13:35;11.43;;;8.33;;
23088;SDS011;11713;48.506;8.966;2023-02-28T11:16:06;12.03;;;8.03;;
23088;SDS011;11713;48.506;8.966;2023-02-28T11:18:42;14.37;;;8.30;;
23088;SDS011;11713;48.506;8.966;2023-02-28T11:21:17;10.13;;;8.23;;
23088;SDS011;11713;48.506;8.966;2023-02-28T11:23:58;17.57;;;8.63;;
23088;SDS011;11713;48.506;8.966;2023-02-28T11:26:41;11.40;;;8.30;;
23088;SDS011;11713;48.506;8.966;2023-02-28T11:29:17;13.93;;;7.97;;
23088;SDS011;11713;48.506;8.966;2023-02-28T11:34:35;12.40;;;7.90;;
23088;SDS011;11713;48.506;8.966;2023-02-28T11:37:03;10.43;;;7.87;;
23088;SDS011;11713;48.506;8.966;2023-02-28T11:39:32;10.67;;;8.03;;
23088;SDS011;11713;48.506;8.966;2023-02-28T11:42:07;14.00;;;8.40;;
23088;SDS011;11713;48.506;8.966;2023-02-28T11:45:00;12.00;;;8.33;;
23088;SDS011;11713;48.506;8.966;2023-02-28T11:47:48;14.07;;;8.90;;
23088;SDS011;11713;48.506;8.966;2023-02-28T11:53:16;11.23;;;8.17;;
23088;SDS011;11713;48.506;8.966;2023-02-28T12:01:42;10.27;;;8.07;;
23088;SDS011;11713;48.506;8.966;2023-02-28T12:09:19;13.83;;;9.13;;
23088;SDS011;11713;48.506;8.966;2023-02-28T12:22:29;11.57;;;7.57;;
23088;SDS011;11713;48.506;8.966;2023-02-28T12:27:41;9.50;;;8.10;;
23088;SDS011;11713;48.506;8.966;2023-02-28T12:30:21;9.77;;;8.10;;
23088;SDS011;11713;48.506;8.966;2023-02-28T12:32:58;9.97;;;7.93;;
23088;SDS011;11713;48.506;8.966;2023-02-28T12:35:47;10.40;;;7.80;;
23088;SDS011;11713;48.506;8.966;2023-02-28T12:38:21;9.83;;;8.40;;
23088;SDS011;11713;48.506;8.966;2023-02-28T12:43:33;9.83;;;7.90;;
23088;SDS011;11713;48.506;8.966;2023-02-28T12:51:31;10.03;;;8.10;;
23088;SDS011;11713;48.506;8.966;2023-02-28T12:56:38;10.90;;;8.40;;
23088;SDS011;11713;48.506;8.966;2023-02-28T13:05:32;14.10;;;8.37;;
23088;SDS011;11713;48.506;8.966;2023-02-28T13:08:29;11.23;;;8.70;;
23088;SDS011;11713;48.506;8.966;2023-02-28T13:14:00;10.00;;;8.00;;
23088;SDS011;11713;48.506;8.966;2023-02-28T13:16:46;10.17;;;8.13;;
23088;SDS011;11713;48.506;8.966;2023-02-28T13:19:22;10.80;;;7.70;;
23088;SDS011;11713;48.506;8.966;2023-02-28T13:21:50;10.17;;;7.87;;
23088;SDS011;11713;48.506;8.966;2023-02-28T13:34:36;11.43;;;8.33;;
23088;SDS011;11713;48.506;8.966;2023-02-28T13:39:57;9.43;;;8.10;;
23088;SDS011;11713;48.506;8.966;2023-02-28T13:47:29;11.77;;;8.67;;
23088;SDS011;11713;48.506;8.966;2023-02-28T13:52:58;9.40;;;8.17;;
23088;SDS011;11713;48.506;8.966;2023-02-28T14:06:30;10.43;;;8.27;;
23088;SDS011;11713;48.506;8.966;2023-02-28T14:09:45;10.03;;;7.83;;
23088;SDS011;11713;48.506;8.966;2023-02-28T14:17:59;10.70;;;8.60;;
23088;SDS011;11713;48.506;8.966;2023-02-28T14:20:29;12.33;;;8.70;;
23088;SDS011;11713;48.506;8.966;2023-02-28T14:25:53;11.87;;;8.40;;
23088;SDS011;11713;48.506;8.966;2023-02-28T14:28:39;12.27;;;8.73;;
23088;SDS011;11713;48.506;8.966;2023-02-28T14:31:34;10.80;;;8.47;;
23088;SDS011;11713;48.506;8.966;2023-02-28T14:36:50;10.57;;;8.13;;
23088;SDS011;11713;48.506;8.966;2023-02-28T14:39:25;11.43;;;8.63;;
23088;SDS011;11713;48.506;8.966;2023-02-28T14:57:41;10.17;;;8.43;;
23088;SDS011;11713;48.506;8.966;2023-02-28T15:00:32;9.70;;;8.03;;
23088;SDS011;11713;48.506;8.966;2023-02-28T15:02:59;12.03;;;8.23;;
23088;SDS011;11713;48.506;8.966;2023-02-28T15:05:37;9.43;;;8.43;;
23088;SDS011;11713;48.506;8.966;2023-02-28T15:08:10;10.50;;;8.57;;
23088;SDS011;11713;48.506;8.966;2023-02-28T15:10:39;11.27;;;8.00;;
23088;SDS011;11713;48.506;8.966;2023-02-28T15:18:49;11.20;;;7.97;;
23088;SDS011;11713;48.506;8.966;2023-02-28T15:21:22;11.23;;;8.50;;
23088;SDS011;11713;48.506;8.966;2023-02-28T15:23:57;11.13;;;8.47;;
23088;SDS011;11713;48.506;8.966;2023-02-28T15:26:52;11.53;;;8.57;;
23088;SDS011;11713;48.506;8.966;2023-02-28T15:29:24;10.93;;;8.57;;
23088;SDS011;11713;48.506;8.966;2023-02-28T15:31:56;11.20;;;7.97;;
23088;SDS011;11713;48.506;8.966;2023-02-28T15:34:44;10.10;;;8.00;;
23088;SDS011;11713;48.506;8.966;2023-02-28T15:40:30;10.07;;;7.80;;
23088;SDS011;11713;48.506;8.966;2023-02-28T15:48:13;10.57;;;7.67;;
23088;SDS011;11713;48.506;8.966;2023-02-28T15:50:43;11.10;;;8.20;;
23088;SDS011;11713;48.506;8.966;2023-02-28T15:53:16;10.20;;;8.17;;
23088;SDS011;11713;48.506;8.966;2023-02-28T15:55:44;9.43;;;7.97;;
23088;SDS011;11713;48.506;8.966;2023-02-28T15:58:11;11.60;;;8.87;;
23088;SDS011;11713;48.506;8.966;2023-02-28T16:00:38;10.93;;;8.00;;
23088;SDS011;11713;48.506;8.966;2023-02-28T16:04:27;9.43;;;8.17;;
23088;SDS011;11713;48.506;8.966;2023-02-28T16:07:11;12.60;;;8.63;;
23088;SDS011;11713;48.506;8.966;2023-02-28T16:11:00;11.77;;;7.77;;
23088;SDS011;11713;48.506;8.966;2023-02-28T16:13:26;9.93;;;8.40;;
23088;SDS011;11713;48.506;8.966;2023-02-28T16:15:52;9.97;;;7.90;;
23088;SDS011;11713;48.506;8.966;2023-02-28T16:18:22;10.13;;;7.77;;
23088;SDS011;11713;48.506;8.966;2023-02-28T16:20:56;9.33;;;7.03;;
23088;SDS011;11713;48.506;8.966;2023-02-28T16:27:25;9.53;;;7.50;;
23088;SDS011;11713;48.506;8.966;2023-02-28T16:31:19;8.63;;;7.27;;
23088;SDS011;11713;48.506;8.966;2023-02-28T16:34:07;8.90;;;7.67;;
23088;SDS011;11713;48.506;8.966;2023-02-28T16:36:33;9.33;;;7.50;;
23088;SDS011;11713;48.506;8.966;2023-02-28T16:38:59;10.17;;;7.87;;
23088;SDS011;11713;48.506;8.966;2023-02-28T16:41:27;11.97;;;7.93;;
23088;SDS011;11713;48.506;8.966;2023-02-28T16:43:54;11.07;;;7.80;;
23088;SDS011;11713;48.506;8.966;2023-02-28T16:46:24;8.47;;;6.83;;
23088;SDS011;11713;48.506;8.966;2023-02-28T16:48:56;9.27;;;7.73;;
23088;SDS011;11713;48.506;8.966;2023-02-28T16:51:22;11.23;;;8.67;;
23088;SDS011;11713;48.506;8.966;2023-02-28T16:53:48;9.03;;;7.50;;
23088;SDS011;11713;48.506;8.966;2023-02-28T16:56:19;10.80;;;8.37;;
23088;SDS011;11713;48.506;8.966;2023-02-28T16:58:47;9.23;;;7.33;;
23088;SDS011;11713;48.506;8.966;2023-02-28T17:01:14;9.77;;;7.33;;
23088;SDS011;11713;48.506;8.966;2023-02-28T17:03:41;10.10;;;8.17;;
23088;SDS011;11713;48.506;8.966;2023-02-28T17:06:15;10.77;;;8.03;;
23088;SDS011;11713;48.506;8.966;2023-02-28T17:08:54;10.27;;;7.33;;
23088;SDS011;11713;48.506;8.966;2023-02-28T17:11:20;10.23;;;7.77;;
23088;SDS011;11713;48.506;8.966;2023-02-28T17:13:46;11.73;;;8.13;;
23088;SDS011;11713;48.506;8.966;2023-02-28T17:18:44;11.27;;;8.10;;
23088;SDS011;11713;48.506;8.966;2023-02-28T17:21:15;12.43;;;7.97;;
23088;SDS011;11713;48.506;8.966;2023-02-28T17:23:43;9.57;;;7.43;;
23088;SDS011;11713;48.506;8.966;2023-02-28T17:26:11;10.13;;;8.17;;
23088;SDS011;11713;48.506;8.966;2023-02-28T17:28:45;13.20;;;8.33;;
23088;SDS011;11713;48.506;8.966;2023-02-28T17:31:12;13.20;;;9.27;;
23088;SDS011;11713;48.506;8.966;2023-02-28T17:33:38;12.27;;;8.60;;
23088;SDS011;11713;48.506;8.966;2023-02-28T17:36:05;10.63;;;8.43;;
23088;SDS011;11713;48.506;8.966;2023-02-28T17:38:31;12.10;;;9.23;;
23088;SDS011;11713;48.506;8.966;2023-02-28T17:40:57;12.87;;;9.00;;
23088;SDS011;11713;48.506;8.966;2023-02-28T17:43:24;11.73;;;8.70;;
23088;SDS011;11713;48.506;8.966;2023-02-28T17:45:50;10.37;;;7.73;;
23088;SDS011;11713;48.506;8.966;2023-02-28T17:48:17;12.13;;;8.13;;
23088;SDS011;11713;48.506;8.966;2023-02-28T17:50:44;9.33;;;7.23;;
23088;SDS011;11713;48.506;8.966;2023-02-28T17:53:09;11.90;;;8.70;;
23088;SDS011;11713;48.506;8.966;2023-02-28T17:55:37;12.73;;;9.03;;
23088;SDS011;11713;48.506;8.966;2023-02-28T17:58:08;12.33;;;8.77;;
23088;SDS011;11713;48.506;8.966;2023-02-28T18:00:37;10.50;;;8.50;;
23088;SDS011;11713;48.506;8.966;2023-02-28T18:03:03;10.83;;;8.10;;
23088;SDS011;11713;48.506;8.966;2023-02-28T18:05:29;12.23;;;9.30;;
23088;SDS011;11713;48.506;8.966;2023-02-28T18:08:01;13.53;;;9.60;;
23088;SDS011;11713;48.506;8.966;2023-02-28T18:10:29;14.43;;;9.80;;
23088;SDS011;11713;48.506;8.966;2023-02-28T18:13:00;13.60;;;9.00;;
23088;SDS011;11713;48.506;8.966;2023-02-28T18:15:25;12.17;;;9.40;;
23088;SDS011;11713;48.506;8.966;2023-02-28T18:17:52;11.70;;;9.03;;